Terminal Aerodrome Forecast
Issued by NWS

Home | Current Version | Previous Version | Graphics & Text | Print | Product List | Glossary Off
Versions: 1 2 3 4 5 6 7 8 9 10 11 12 13 14 15 16 17 18 19 20 21 22 23 24 25 26 27 28 29 30

000
FTUS43 KDDC 020547 RRA
TAFHYS
TAF
KHYS 020547Z 0206/0224 09006KT P6SM SCT120
     FM020700 08010KT P6SM VCTS BKN080CB
     FM021000 06008KT P6SM SCT007
     FM021400 09010KT P6SM BKN015
     FM021900 11012KT P6SM SCT020=

USA.gov is the U.S. government's official web portal to all federal, state and local government web resources and services.